Humboldt Bay — A8OL4 — position and weather

sailwx.info

Track history (hours):
 
Tides and Currents Weather Stations Pressure Air Temp Water Temp Dewpoint Dewpoint Depression Visibility Wind Speed Wind Dir Waves Ship Positions

Humboldt Bay

Last reported at 2016-May-20 16:28 UTC. Time now 2016-May-31 18:00 UTC.
Position N 27°26' W 015°21'.
Warning: this ship's position is 11 days out of date.

Length 147 m; draft 6.1 m.

Type: Cargo ship. MMSI: 636013649.

Date/timePositionNaut miles runAvg speedWind from/ knotsBaromVisibWave heightAir tempDewpointWater temp
2016-May-20 16:28N 27°26' W 015°21'1617.7
2016-May-20 15:33N 27°41' W 015°13'1817.8
2016-May-20 14:33N 27°58' W 015°16'1312.7
2016-May-20 13:33N 28°08' W 015°25'0 0.1
2016-May-20 12:30N 28°08' W 015°24'0 0.0
2016-May-20 11:33N 28°08' W 015°24'0 0.0
2016-May-20 10:33N 28°08' W 015°24'0 0.0
2016-May-20 09:33N 28°08' W 015°24'0 0.0
2016-May-20 08:33N 28°08' W 015°24'0 0.0
2016-May-20 07:33N 28°08' W 015°24'0 0.0
2016-May-20 06:33N 28°08' W 015°24'0 0.0
2016-May-20 05:33N 28°08' W 015°24'0 0.0
2016-May-20 04:34N 28°08' W 015°24'0 0.0
2016-May-20 03:33N 28°08' W 015°24'0 0.0
2016-May-20 02:34N 28°08' W 015°24'0 0.0
2016-May-20 01:34N 28°08' W 015°24'0 0.0
2016-May-20 00:34N 28°08' W 015°24'0 0.0
2016-May-19 23:34N 28°08' W 015°24'0 0.0
2016-May-19 22:33N 28°08' W 015°24'0 0.0
2016-May-19 21:33N 28°08' W 015°24'0 0.0
2016-May-19 20:33N 28°08' W 015°24'0 0.0
2016-May-19 19:33N 28°08' W 015°24'0 0.0
2016-May-19 18:33N 28°08' W 015°24'0 0.0
2016-May-19 17:33N 28°08' W 015°24'0 0.0
2016-May-19 16:33N 28°08' W 015°24'0 0.0
2016-May-19 15:33N 28°08' W 015°24'0 0.0
2016-May-19 14:34N 28°08' W 015°24'0 0.0
2016-May-19 13:33N 28°08' W 015°24'0 0.0
2016-May-19 12:34N 28°08' W 015°24'0 0.0
2016-May-19 11:33N 28°08' W 015°24'0 0.0
2016-May-19 10:34N 28°08' W 015°24'0 0.0
2016-May-19 09:33N 28°08' W 015°24'0 0.0
2016-May-19 08:34N 28°08' W 015°24'0 0.0
2016-May-19 07:33N 28°08' W 015°24'0 0.0
2016-May-19 06:33N 28°08' W 015°24'0 0.0
2016-May-19 05:33N 28°08' W 015°24'0 0.0
2016-May-19 04:33N 28°08' W 015°24'0 0.0
2016-May-19 03:33N 28°08' W 015°24'0 0.0
2016-May-19 02:33N 28°08' W 015°24'0 0.0
2016-May-19 01:33N 28°08' W 015°24'0 0.0
2016-May-19 00:34N 28°08' W 015°24'0 0.0
2016-May-18 23:34N 28°08' W 015°24'0 0.0
2016-May-18 22:33N 28°08' W 015°24'0 0.0
2016-May-18 21:34N 28°08' W 015°24'0 0.0
2016-May-18 20:34N 28°08' W 015°24'1 0.6
2016-May-18 19:34N 28°08' W 015°25'0 0.3
2016-May-18 18:31N 28°09' W 015°25'0 0.0
2016-May-18 17:28N 28°09' W 015°25'0 0.0
2016-May-18 16:31N 28°09' W 015°25'0 0.0
2016-May-18 15:31N 28°09' W 015°25'0 0.0
2016-May-18 14:31N 28°09' W 015°25'0 0.0
2016-May-18 13:31N 28°09' W 015°25'0 0.0
2016-May-18 12:22N 28°09' W 015°25'0 0.0
2016-May-18 11:25N 28°09' W 015°25'0 0.0
2016-May-18 10:25N 28°09' W 015°25'0 0.0
2016-May-18 09:25N 28°09' W 015°25'0 0.0
2016-May-18 08:25N 28°09' W 015°25'0 0.0
2016-May-18 07:25N 28°09' W 015°25'0 0.0
2016-May-18 06:28N 28°09' W 015°25'0 0.0
2016-May-18 05:28N 28°09' W 015°25'0 0.0
2016-May-18 04:28N 28°09' W 015°25'0 0.0
2016-May-18 03:28N 28°09' W 015°25'0 0.0
2016-May-18 02:31N 28°09' W 015°25'0 0.0
2016-May-18 01:28N 28°09' W 015°25'0 0.0
2016-May-18 00:31N 28°09' W 015°25'0 0.0
2016-May-17 23:31N 28°09' W 015°25'0 0.0
2016-May-17 22:31N 28°09' W 015°25'0 0.0
2016-May-17 21:31N 28°09' W 015°25'0 0.0
2016-May-17 20:22N 28°09' W 015°25'0 0.0
2016-May-17 19:25N 28°09' W 015°25'0 0.0
2016-May-17 18:25N 28°09' W 015°25'0 0.0
2016-May-17 17:25N 28°09' W 015°25'0 0.0
2016-May-17 16:28N 28°09' W 015°25'0 0.0
2016-May-17 15:33N 28°09' W 015°25'4 3.7
2016-May-17 14:33N 28°06' W 015°22'8 8.2
2016-May-17 13:33N 28°03' W 015°14'2 1.8
2016-May-17 12:24N 28°05' W 015°13'2 1.8
2016-May-17 11:33N 28°06' W 015°13'3 2.8
2016-May-17 10:33N 28°07' W 015°16'4 4.0
2016-May-17 09:33N 28°09' W 015°12'4 3.6
2016-May-17 08:33N 28°11' W 015°09'2 1.9
2016-May-17 07:33N 28°13' W 015°08'2 1.9
2016-May-17 06:33N 28°15' W 015°07'2 2.0
2016-May-17 05:33N 28°16' W 015°06'2 2.1
2016-May-17 04:33N 28°18' W 015°05'7 7.2
2016-May-17 03:33N 28°15' W 015°12'2 2.3
2016-May-17 02:29N 28°15' W 015°15'2 1.9
2016-May-17 01:32N 28°16' W 015°14'2 1.8
2016-May-17 00:33N 28°18' W 015°13'2 1.6
2016-May-16 23:32N 28°20' W 015°13'2 1.7
2016-May-16 22:32N 28°21' W 015°12'2 1.6
2016-May-16 21:32N 28°22' W 015°11'2 1.7
2016-May-16 20:26N 28°24' W 015°10'2 1.5
2016-May-16 19:27N 28°25' W 015°09'8 8.5
2016-May-16 18:33N 28°20' W 015°16'6 5.3
2016-May-16 17:31N 28°15' W 015°18'1 1.4
2016-May-16 16:31N 28°16' W 015°17'2 1.5
2016-May-16 15:31N 28°18' W 015°16'1111.0
2016-May-16 14:33N 28°27' W 015°10'1616.0
2016-May-16 13:33N 28°40' W 015°00'  
2016-May-12 20:32N 35°59' W 005°32'9 8.8
2016-May-12 19:33N 36°06' W 005°25'1 0.6
2016-May-12 18:33N 36°06' W 005°25'0 0.0
2016-May-12 17:31N 36°06' W 005°25'0 0.0
2016-May-12 16:20N 36°06' W 005°25'0 0.0
2016-May-12 15:33N 36°06' W 005°25'0 0.0
2016-May-12 14:31N 36°06' W 005°25'0 0.1
2016-May-12 13:30N 36°06' W 005°25'0 0.0
2016-May-12 12:31N 36°06' W 005°25'1 0.7
2016-May-12 11:27N 36°06' W 005°24'6 6.2
2016-May-12 10:30N 36°04' W 005°18'  
Track history (hours):
 
Tides and Currents Weather Stations Pressure Air Temp Water Temp Dewpoint Dewpoint Depression Visibility Wind Speed Wind Dir Waves Ship Positions

Humboldt Bay

Last reported at 2016-May-20 16:28 UTC. Time now 2016-May-31 18:00 UTC.
Position N 27°26' W 015°21'.
Warning: this ship's position is 11 days out of date.

Length 147 m; draft 6.1 m.

Type: Cargo ship. MMSI: 636013649.

Date/timePositionNaut miles runAvg speedWind from/ knotsBaromVisibWave heightAir tempDewpointWater temp
2016-May-20 16:28N 27°26' W 015°21'1617.7
2016-May-20 15:33N 27°41' W 015°13'1817.8
2016-May-20 14:33N 27°58' W 015°16'1312.7
2016-May-20 13:33N 28°08' W 015°25'0 0.1
2016-May-20 12:30N 28°08' W 015°24'0 0.0
2016-May-20 11:33N 28°08' W 015°24'0 0.0
2016-May-20 10:33N 28°08' W 015°24'0 0.0
2016-May-20 09:33N 28°08' W 015°24'0 0.0
2016-May-20 08:33N 28°08' W 015°24'0 0.0
2016-May-20 07:33N 28°08' W 015°24'0 0.0
2016-May-20 06:33N 28°08' W 015°24'0 0.0
2016-May-20 05:33N 28°08' W 015°24'0 0.0
2016-May-20 04:34N 28°08' W 015°24'0 0.0
2016-May-20 03:33N 28°08' W 015°24'0 0.0
2016-May-20 02:34N 28°08' W 015°24'0 0.0
2016-May-20 01:34N 28°08' W 015°24'0 0.0
2016-May-20 00:34N 28°08' W 015°24'0 0.0
2016-May-19 23:34N 28°08' W 015°24'0 0.0
2016-May-19 22:33N 28°08' W 015°24'0 0.0
2016-May-19 21:33N 28°08' W 015°24'0 0.0
2016-May-19 20:33N 28°08' W 015°24'0 0.0
2016-May-19 19:33N 28°08' W 015°24'0 0.0
2016-May-19 18:33N 28°08' W 015°24'0 0.0
2016-May-19 17:33N 28°08' W 015°24'0 0.0
2016-May-19 16:33N 28°08' W 015°24'0 0.0
2016-May-19 15:33N 28°08' W 015°24'0 0.0
2016-May-19 14:34N 28°08' W 015°24'0 0.0
2016-May-19 13:33N 28°08' W 015°24'0 0.0
2016-May-19 12:34N 28°08' W 015°24'0 0.0
2016-May-19 11:33N 28°08' W 015°24'0 0.0
2016-May-19 10:34N 28°08' W 015°24'0 0.0
2016-May-19 09:33N 28°08' W 015°24'0 0.0
2016-May-19 08:34N 28°08' W 015°24'0 0.0
2016-May-19 07:33N 28°08' W 015°24'0 0.0
2016-May-19 06:33N 28°08' W 015°24'0 0.0
2016-May-19 05:33N 28°08' W 015°24'0 0.0
2016-May-19 04:33N 28°08' W 015°24'0 0.0
2016-May-19 03:33N 28°08' W 015°24'0 0.0
2016-May-19 02:33N 28°08' W 015°24'0 0.0
2016-May-19 01:33N 28°08' W 015°24'0 0.0
2016-May-19 00:34N 28°08' W 015°24'0 0.0
2016-May-18 23:34N 28°08' W 015°24'0 0.0
2016-May-18 22:33N 28°08' W 015°24'0 0.0
2016-May-18 21:34N 28°08' W 015°24'0 0.0
2016-May-18 20:34N 28°08' W 015°24'1 0.6
2016-May-18 19:34N 28°08' W 015°25'0 0.3
2016-May-18 18:31N 28°09' W 015°25'0 0.0
2016-May-18 17:28N 28°09' W 015°25'0 0.0
2016-May-18 16:31N 28°09' W 015°25'0 0.0
2016-May-18 15:31N 28°09' W 015°25'0 0.0
2016-May-18 14:31N 28°09' W 015°25'0 0.0
2016-May-18 13:31N 28°09' W 015°25'0 0.0
2016-May-18 12:22N 28°09' W 015°25'0 0.0
2016-May-18 11:25N 28°09' W 015°25'0 0.0
2016-May-18 10:25N 28°09' W 015°25'0 0.0
2016-May-18 09:25N 28°09' W 015°25'0 0.0
2016-May-18 08:25N 28°09' W 015°25'0 0.0
2016-May-18 07:25N 28°09' W 015°25'0 0.0
2016-May-18 06:28N 28°09' W 015°25'0 0.0
2016-May-18 05:28N 28°09' W 015°25'0 0.0
2016-May-18 04:28N 28°09' W 015°25'0 0.0
2016-May-18 03:28N 28°09' W 015°25'0 0.0
2016-May-18 02:31N 28°09' W 015°25'0 0.0
2016-May-18 01:28N 28°09' W 015°25'0 0.0
2016-May-18 00:31N 28°09' W 015°25'0 0.0
2016-May-17 23:31N 28°09' W 015°25'0 0.0
2016-May-17 22:31N 28°09' W 015°25'0 0.0
2016-May-17 21:31N 28°09' W 015°25'0 0.0
2016-May-17 20:22N 28°09' W 015°25'0 0.0
2016-May-17 19:25N 28°09' W 015°25'0 0.0
2016-May-17 18:25N 28°09' W 015°25'0 0.0
2016-May-17 17:25N 28°09' W 015°25'0 0.0
2016-May-17 16:28N 28°09' W 015°25'0 0.0
2016-May-17 15:33N 28°09' W 015°25'4 3.7
2016-May-17 14:33N 28°06' W 015°22'8 8.2
2016-May-17 13:33N 28°03' W 015°14'2 1.8
2016-May-17 12:24N 28°05' W 015°13'2 1.8
2016-May-17 11:33N 28°06' W 015°13'3 2.8
2016-May-17 10:33N 28°07' W 015°16'4 4.0
2016-May-17 09:33N 28°09' W 015°12'4 3.6
2016-May-17 08:33N 28°11' W 015°09'2 1.9
2016-May-17 07:33N 28°13' W 015°08'2 1.9
2016-May-17 06:33N 28°15' W 015°07'2 2.0
2016-May-17 05:33N 28°16' W 015°06'2 2.1
2016-May-17 04:33N 28°18' W 015°05'7 7.2
2016-May-17 03:33N 28°15' W 015°12'2 2.3
2016-May-17 02:29N 28°15' W 015°15'2 1.9
2016-May-17 01:32N 28°16' W 015°14'2 1.8
2016-May-17 00:33N 28°18' W 015°13'2 1.6
2016-May-16 23:32N 28°20' W 015°13'2 1.7
2016-May-16 22:32N 28°21' W 015°12'2 1.6
2016-May-16 21:32N 28°22' W 015°11'2 1.7
2016-May-16 20:26N 28°24' W 015°10'2 1.5
2016-May-16 19:27N 28°25' W 015°09'8 8.5
2016-May-16 18:33N 28°20' W 015°16'6 5.3
2016-May-16 17:31N 28°15' W 015°18'1 1.4
2016-May-16 16:31N 28°16' W 015°17'2 1.5
2016-May-16 15:31N 28°18' W 015°16'1111.0
2016-May-16 14:33N 28°27' W 015°10'1616.0
2016-May-16 13:33N 28°40' W 015°00'  
2016-May-12 20:32N 35°59' W 005°32'9 8.8
2016-May-12 19:33N 36°06' W 005°25'1 0.6
2016-May-12 18:33N 36°06' W 005°25'0 0.0
2016-May-12 17:31N 36°06' W 005°25'0 0.0
2016-May-12 16:20N 36°06' W 005°25'0 0.0
2016-May-12 15:33N 36°06' W 005°25'0 0.0
2016-May-12 14:31N 36°06' W 005°25'0 0.1
2016-May-12 13:30N 36°06' W 005°25'0 0.0
2016-May-12 12:31N 36°06' W 005°25'1 0.7
2016-May-12 11:27N 36°06' W 005°24'6 6.2
2016-May-12 10:30N 36°04' W 005°18'  

Dump ship's entire track history